createdAt,value
2019-04-27T00:01:23.641Z,77.66
2019-04-27T00:04:11.667Z,77.47
2019-04-27T00:06:42.949Z,77.91
2019-04-27T00:09:23.667Z,78.12
2019-04-27T00:12:03.474Z,77.91
2019-04-27T00:14:33.570Z,76.78
2019-04-27T00:17:40.442Z,76.23
2019-04-27T00:19:53.410Z,75.87
2019-04-27T00:22:33.443Z,75.22
2019-04-27T00:25:03.529Z,75.81
2019-04-27T00:27:33.487Z,75.57
2019-04-27T00:30:03.875Z,76.50
2019-04-27T00:32:33.270Z,76.24
2019-04-27T00:35:03.695Z,74.73
2019-04-27T00:37:45.771Z,74.85
2019-04-27T00:40:15.974Z,74.62
2019-04-27T00:42:44.556Z,75.49
2019-04-27T00:45:13.625Z,75.34
2019-04-27T00:47:54.626Z,74.99
2019-04-27T00:50:13.345Z,74.07
2019-04-27T00:52:42.941Z,74.74
2019-04-27T00:55:13.080Z,74.90
2019-04-27T00:57:49.475Z,75.46
2019-04-27T01:00:34.365Z,74.62
2019-04-27T01:03:04.397Z,75.10
2019-04-27T01:05:33.846Z,75.27
2019-04-27T01:08:03.828Z,75.37
2019-04-27T01:10:33.479Z,75.09
2019-04-27T01:13:03.279Z,74.85
2019-04-27T01:15:33.996Z,75.44
2019-04-27T01:18:12.301Z,75.52
2019-04-27T01:20:33.469Z,75.79
2019-04-27T01:23:01.979Z,76.16
2019-04-27T01:25:32.355Z,76.70
2019-04-27T01:28:20.785Z,76.65
2019-04-27T01:30:56.764Z,76.44
2019-04-27T01:33:25.242Z,76.17
2019-04-27T01:35:53.699Z,76.27
2019-04-27T01:38:22.136Z,76.99
2019-04-27T01:40:50.638Z,77.32
2019-04-27T01:43:19.080Z,77.82
2019-04-27T01:45:48.823Z,77.35
2019-04-27T01:48:23.748Z,77.43
2019-04-27T01:50:49.209Z,77.39
2019-04-27T01:53:19.018Z,77.42
2019-04-27T01:55:49.167Z,77.88
2019-04-27T01:58:20.157Z,77.48
2019-04-27T02:00:50.498Z,77.59
2019-04-27T02:03:38.615Z,77.92
2019-04-27T02:06:07.200Z,78.99
2019-04-27T02:08:35.633Z,79.24
2019-04-27T02:11:04.741Z,79.22
2019-04-27T02:13:33.214Z,79.12
2019-04-27T02:16:01.681Z,79.40
2019-04-27T02:18:37.424Z,78.75
2019-04-27T02:21:00.631Z,78.89
2019-04-27T02:23:29.412Z,78.76
2019-04-27T02:25:58.616Z,77.78
2019-04-27T02:28:40.622Z,77.47
2019-04-27T02:31:19.857Z,77.22
2019-04-27T02:34:04.952Z,76.53
2019-04-27T02:36:33.420Z,76.90
2019-04-27T02:39:01.881Z,77.21
2019-04-27T02:41:30.376Z,77.13
2019-04-27T02:44:03.477Z,76.83
2019-04-27T02:46:31.939Z,76.28
2019-04-27T02:49:06.441Z,76.31
2019-04-27T02:51:35.034Z,76.66
2019-04-27T02:54:03.561Z,76.79
2019-04-27T02:56:31.943Z,76.83
2019-04-27T02:59:00.456Z,76.14
2019-04-27T03:01:30.838Z,76.47
2019-04-27T03:04:00.352Z,75.36
2019-04-27T03:06:29.958Z,75.38
2019-04-27T03:09:00.370Z,75.46
2019-04-27T03:11:30.919Z,75.00
2019-04-27T03:14:09.875Z,74.35
2019-04-27T03:16:50.615Z,74.59
2019-04-27T03:19:21.863Z,75.21
2019-04-27T03:21:55.132Z,75.26
2019-04-27T03:24:25.183Z,75.37
2019-04-27T03:26:55.316Z,75.54
2019-04-27T03:29:24.289Z,75.89
2019-04-27T03:31:54.454Z,75.99
2019-04-27T03:34:23.169Z,76.26
2019-04-27T03:36:51.829Z,77.47
2019-04-27T03:39:20.304Z,79.27
2019-04-27T03:41:50.213Z,80.36
2019-04-27T03:44:19.414Z,79.77
2019-04-27T03:46:49.619Z,80.61
2019-04-27T03:49:29.357Z,80.86
2019-04-27T03:51:50.269Z,82.49
2019-04-27T03:54:22.167Z,82.55
2019-04-27T03:56:52.173Z,81.91
2019-04-27T03:59:29.914Z,81.45
2019-04-27T04:01:58.980Z,81.38
2019-04-27T04:04:29.675Z,81.04
2019-04-27T04:07:15.011Z,80.69
2019-04-27T04:09:43.745Z,81.42
2019-04-27T04:12:30.366Z,80.96
2019-04-27T04:14:59.782Z,80.44
2019-04-27T04:17:30.688Z,80.33
2019-04-27T04:20:01.568Z,80.22
2019-04-27T04:22:30.417Z,80.26
2019-04-27T04:24:59.893Z,80.98
2019-04-27T04:27:29.930Z,81.46
2019-04-27T04:29:59.412Z,81.01
2019-04-27T04:32:29.859Z,80.44
2019-04-27T04:35:21.105Z,80.05
2019-04-27T04:37:49.610Z,79.68
2019-04-27T04:40:23.143Z,79.55
2019-04-27T04:42:52.297Z,79.24
2019-04-27T04:45:30.489Z,79.87
2019-04-27T04:48:00.309Z,79.95
2019-04-27T04:50:30.404Z,79.78
2019-04-27T04:52:59.975Z,79.25
2019-04-27T04:55:30.644Z,79.91
2019-04-27T04:57:59.148Z,80.41
2019-04-27T05:00:29.629Z,80.09
2019-04-27T05:02:59.464Z,79.75
2019-04-27T05:05:29.322Z,80.88
2019-04-27T05:07:58.760Z,81.72
2019-04-27T05:10:28.840Z,81.60
2019-04-27T05:12:59.014Z,81.25
2019-04-27T05:15:29.283Z,82.13
2019-04-27T05:17:59.158Z,83.07
2019-04-27T05:20:39.703Z,82.71
2019-04-27T05:23:09.616Z,82.43
2019-04-27T05:25:39.214Z,81.86
2019-04-27T05:28:09.904Z,81.88
2019-04-27T05:30:39.238Z,81.54
2019-04-27T05:33:11.281Z,81.08
2019-04-27T05:35:41.141Z,80.99
2019-04-27T05:38:12.947Z,80.94
2019-04-27T05:40:40.053Z,81.25
2019-04-27T05:43:09.189Z,82.18
2019-04-27T05:46:01.888Z,82.68
2019-04-27T05:48:32.023Z,82.55
2019-04-27T05:51:01.990Z,82.87
2019-04-27T05:53:30.846Z,82.97
2019-04-27T05:55:59.595Z,82.38
2019-04-27T05:58:28.897Z,81.80
2019-04-27T06:00:59.496Z,81.11
2019-04-27T06:03:29.634Z,80.53
2019-04-27T06:06:01.391Z,79.98
2019-04-27T06:08:29.466Z,81.62
2019-04-27T06:10:59.258Z,80.77
2019-04-27T06:13:30.748Z,81.18
2019-04-27T06:15:59.252Z,81.02
2019-04-27T06:18:29.412Z,80.23
2019-04-27T06:20:59.684Z,79.57
2019-04-27T06:23:28.940Z,79.97
2019-04-27T06:25:57.856Z,79.36
2019-04-27T06:28:26.438Z,79.12
2019-04-27T06:30:54.967Z,80.08
2019-04-27T06:33:31.973Z,79.51
2019-04-27T06:35:53.673Z,79.96
2019-04-27T06:38:22.112Z,79.84
2019-04-27T06:40:50.499Z,80.69
2019-04-27T06:43:19.055Z,81.32
2019-04-27T06:45:48.803Z,81.21
2019-04-27T06:48:19.312Z,81.13
2019-04-27T06:50:50.231Z,81.21
2019-04-27T06:53:19.129Z,80.78
2019-04-27T06:55:49.665Z,81.08
2019-04-27T06:58:19.970Z,81.21
2019-04-27T07:00:49.577Z,79.59
2019-04-27T07:03:18.898Z,79.57
2019-04-27T07:05:48.721Z,78.99
2019-04-27T07:08:18.627Z,78.13
2019-04-27T07:10:49.037Z,78.25
2019-04-27T07:13:19.417Z,77.47
2019-04-27T07:15:48.526Z,78.29
2019-04-27T07:18:18.641Z,78.82
2019-04-27T07:20:48.530Z,78.63
2019-04-27T07:23:18.667Z,78.95
2019-04-27T07:25:48.784Z,79.13
2019-04-27T07:28:18.967Z,78.48
2019-04-27T07:30:48.757Z,78.11
2019-04-27T07:33:18.598Z,76.82
2019-04-27T07:35:48.937Z,76.05
2019-04-27T07:38:19.223Z,75.43
2019-04-27T07:40:48.862Z,75.36
2019-04-27T07:43:29.312Z,75.12
2019-04-27T07:45:59.049Z,75.54
2019-04-27T07:48:28.574Z,75.31
2019-04-27T07:50:58.982Z,76.22
2019-04-27T07:53:29.135Z,76.20
2019-04-27T07:55:59.273Z,76.71
2019-04-27T07:58:29.501Z,76.20
2019-04-27T08:00:59.458Z,75.83
2019-04-27T08:03:29.138Z,75.63
2019-04-27T08:05:58.863Z,76.43
2019-04-27T08:08:28.604Z,76.17
2019-04-27T08:10:59.376Z,75.22
2019-04-27T08:13:29.445Z,75.46
2019-04-27T08:15:59.521Z,75.82
2019-04-27T08:18:30.274Z,75.70
2019-04-27T08:20:59.117Z,75.86
2019-04-27T08:23:29.566Z,75.68
2019-04-27T08:25:58.875Z,75.01
2019-04-27T08:28:29.299Z,74.49
2019-04-27T08:31:00.405Z,73.32
2019-04-27T08:33:29.277Z,71.86
2019-04-27T08:35:59.053Z,70.96
2019-04-27T08:38:28.924Z,68.96
2019-04-27T08:40:59.199Z,66.06
2019-04-27T08:43:29.018Z,66.16
2019-04-27T08:45:58.911Z,65.66
2019-04-27T08:48:34.686Z,63.95
2019-04-27T08:50:59.323Z,63.27
2019-04-27T08:53:29.819Z,62.91
2019-04-27T08:55:59.166Z,63.04
2019-04-27T08:58:28.626Z,63.50
2019-04-27T09:00:58.929Z,62.58
2019-04-27T09:03:29.308Z,63.16
2019-04-27T09:05:58.994Z,64.40
2019-04-27T09:08:29.352Z,64.93
2019-04-27T09:13:51.465Z,64.42
2019-04-27T09:16:39.880Z,63.90
2019-04-27T09:19:10.010Z,63.32
2019-04-27T09:21:40.106Z,63.16
2019-04-27T09:24:09.450Z,62.44
2019-04-27T09:26:39.029Z,63.40
2019-04-27T09:29:08.693Z,63.42
2019-04-27T09:31:37.468Z,63.41
2019-04-27T09:34:05.926Z,62.09
2019-04-27T09:36:34.321Z,60.37
2019-04-27T09:39:03.002Z,59.64
2019-04-27T09:41:31.507Z,57.82
2019-04-27T09:44:02.411Z,57.95
2019-04-27T09:46:30.148Z,59.03
2019-04-27T09:48:58.537Z,56.48
2019-04-27T09:51:27.008Z,55.51
2019-04-27T09:53:56.350Z,55.03
2019-04-27T09:56:26.114Z,56.25
2019-04-27T09:58:57.087Z,55.84
2019-04-27T10:01:26.499Z,53.29
2019-04-27T10:03:56.643Z,52.09
2019-04-27T10:06:29.654Z,52.51
2019-04-27T10:08:55.948Z,53.75
2019-04-27T10:11:26.505Z,54.82
2019-04-27T10:13:55.616Z,55.20
2019-04-27T10:16:25.696Z,55.07
2019-04-27T10:18:54.278Z,53.45
2019-04-27T10:21:22.720Z,52.78
2019-04-27T10:23:51.430Z,52.56
2019-04-27T10:26:19.874Z,52.31
2019-04-27T10:28:48.406Z,53.04
2019-04-27T10:31:16.864Z,52.89
2019-04-27T10:33:45.825Z,52.85
2019-04-27T10:36:15.522Z,53.05
2019-04-27T10:38:45.508Z,51.06
2019-04-27T10:41:15.817Z,48.76
2019-04-27T10:43:44.475Z,48.36
2019-04-27T10:46:13.249Z,48.48
2019-04-27T10:48:41.785Z,47.86
2019-04-27T10:51:10.614Z,48.95
2019-04-27T10:53:39.119Z,50.67
2019-04-27T10:56:07.477Z,49.85
2019-04-27T10:58:36.263Z,48.83
2019-04-27T11:01:06.436Z,47.63
2019-04-27T11:03:51.667Z,48.59
2019-04-27T11:06:33.666Z,49.42
2019-04-27T11:09:02.200Z,48.35
2019-04-27T11:11:31.036Z,46.98
2019-04-27T11:14:01.077Z,45.59
2019-04-27T11:16:29.856Z,45.74
2019-04-27T11:18:58.713Z,43.74
2019-04-27T11:21:27.292Z,42.86
2019-04-27T11:23:56.038Z,43.20
2019-04-27T11:26:26.218Z,42.68
2019-04-27T11:28:54.990Z,42.87
2019-04-27T11:31:23.474Z,41.13
2019-04-27T11:33:52.638Z,42.52
2019-04-27T11:36:25.653Z,42.75
2019-04-27T11:39:02.153Z,41.68
2019-04-27T11:41:30.908Z,40.74
2019-04-27T11:43:59.553Z,40.82
2019-04-27T11:46:28.213Z,38.44
2019-04-27T11:48:58.381Z,39.42
2019-04-27T11:51:27.033Z,39.06
2019-04-27T11:53:55.822Z,40.35
2019-04-27T11:56:24.506Z,39.40
2019-04-27T11:58:52.906Z,39.28
2019-04-27T12:01:21.445Z,35.99
2019-04-27T12:03:49.894Z,36.02
2019-04-27T12:06:18.337Z,37.24
2019-04-27T12:08:46.787Z,32.98
2019-04-27T12:11:16.035Z,27.27
2019-04-27T12:13:46.099Z,24.50
2019-04-27T12:16:17.701Z,25.46
2019-04-27T12:18:48.972Z,29.41
2019-04-27T12:21:16.436Z,32.91
2019-04-27T12:23:44.946Z,35.18
2019-04-27T12:26:15.890Z,36.44
2019-04-27T12:28:51.910Z,36.71
2019-04-27T12:31:25.797Z,37.41
2019-04-27T12:33:56.013Z,37.63
2019-04-27T12:36:25.806Z,38.96
2019-04-27T12:38:54.501Z,40.23
2019-04-27T12:41:24.560Z,41.29
2019-04-27T12:43:53.096Z,41.58
2019-04-27T12:46:21.627Z,41.26
2019-04-27T12:48:50.171Z,42.79
2019-04-27T12:51:20.953Z,45.40
2019-04-27T12:53:52.943Z,47.14
2019-04-27T12:56:28.242Z,48.10
2019-04-27T12:59:01.014Z,48.29
2019-04-27T13:01:30.350Z,48.05
2019-04-27T13:03:59.339Z,48.08
2019-04-27T13:06:27.865Z,47.83
2019-04-27T13:08:56.380Z,48.21
2019-04-27T13:11:26.571Z,48.13
2019-04-27T13:13:57.231Z,48.55
2019-04-27T13:16:27.222Z,49.11
2019-04-27T13:18:55.691Z,49.29
2019-04-27T13:21:26.321Z,48.31
2019-04-27T13:24:02.119Z,47.86
2019-04-27T13:26:25.141Z,47.76
2019-04-27T13:28:53.647Z,48.02
2019-04-27T13:31:22.541Z,48.32
2019-04-27T13:33:52.572Z,48.33
2019-04-27T13:36:21.252Z,47.24
2019-04-27T13:38:49.936Z,46.87
2019-04-27T13:41:27.801Z,46.61
2019-04-27T13:43:48.890Z,45.69
2019-04-27T13:46:26.033Z,46.33
2019-04-27T13:49:02.094Z,45.80
2019-04-27T13:51:47.884Z,44.43
2019-04-27T13:54:25.209Z,43.17
2019-04-27T13:56:47.701Z,42.61
2019-04-27T13:59:16.485Z,43.84
2019-04-27T14:01:45.230Z,44.62
2019-04-27T14:04:14.020Z,44.36
2019-04-27T14:06:44.403Z,44.35
2019-04-27T14:09:12.989Z,44.57
2019-04-27T14:11:41.776Z,43.69
2019-04-27T14:14:10.215Z,43.09
2019-04-27T14:16:39.195Z,43.44
2019-04-27T14:19:08.586Z,42.88
2019-04-27T14:21:38.948Z,42.97
2019-04-27T14:24:07.782Z,42.56
2019-04-27T14:26:38.448Z,42.86
2019-04-27T14:29:08.228Z,42.52
2019-04-27T14:31:39.473Z,42.64
2019-04-27T14:34:09.100Z,41.95
2019-04-27T14:36:38.039Z,38.96
2019-04-27T14:39:09.586Z,37.62
2019-04-27T14:41:38.762Z,37.71
2019-04-27T14:44:10.503Z,37.65
2019-04-27T14:46:38.791Z,38.93
2019-04-27T14:49:07.416Z,39.21
2019-04-27T14:51:35.944Z,40.01
2019-04-27T14:54:04.543Z,40.63
2019-04-27T14:56:33.042Z,40.73
2019-04-27T14:59:01.525Z,40.26
2019-04-27T15:01:30.085Z,40.34
2019-04-27T15:03:58.679Z,40.44
2019-04-27T15:06:27.197Z,40.44
2019-04-27T15:08:55.906Z,41.04
2019-04-27T15:11:24.617Z,41.41
2019-04-27T15:13:54.950Z,41.04
2019-04-27T15:16:23.431Z,41.29
2019-04-27T15:19:02.622Z,40.96
2019-04-27T15:21:32.603Z,40.88
2019-04-27T15:24:04.237Z,41.39
2019-04-27T15:26:32.410Z,41.54
2019-04-27T15:29:02.470Z,40.85
2019-04-27T15:31:32.552Z,39.73
2019-04-27T15:34:02.893Z,40.00
2019-04-27T15:36:52.740Z,39.84
2019-04-27T15:39:30.508Z,39.38
2019-04-27T15:42:01.935Z,39.97
2019-04-27T15:44:31.188Z,39.60
2019-04-27T15:47:03.601Z,39.95
2019-04-27T15:49:31.783Z,40.21
2019-04-27T15:52:00.410Z,40.73
2019-04-27T15:54:31.990Z,41.12
2019-04-27T15:57:01.570Z,42.23
2019-04-27T15:59:37.836Z,42.06
2019-04-27T16:02:05.513Z,42.98
2019-04-27T16:04:34.652Z,43.47
2019-04-27T16:07:03.853Z,43.51
2019-04-27T16:09:32.525Z,44.22
2019-04-27T16:12:09.918Z,44.74
2019-04-27T16:14:31.537Z,44.68
2019-04-27T16:17:03.021Z,44.64
2019-04-27T16:19:30.321Z,44.27
2019-04-27T16:21:59.214Z,44.94
2019-04-27T16:24:29.041Z,45.34
2019-04-27T16:26:59.141Z,44.78
2019-04-27T16:29:31.382Z,44.97
2019-04-27T16:31:58.421Z,44.91
2019-04-27T16:34:28.671Z,45.12
2019-04-27T16:36:57.815Z,45.78
2019-04-27T16:39:26.303Z,46.42
2019-04-27T16:41:54.829Z,46.94
2019-04-27T16:44:23.438Z,47.67
2019-04-27T16:46:52.043Z,48.09
2019-04-27T16:49:20.473Z,47.91
2019-04-27T16:51:49.382Z,48.08
2019-04-27T16:54:21.186Z,47.90
2019-04-27T16:56:52.279Z,48.75
2019-04-27T16:59:39.772Z,49.13
2019-04-27T17:01:50.280Z,49.87
2019-04-27T17:04:19.191Z,50.56
2019-04-27T17:06:49.492Z,50.38
2019-04-27T17:09:18.978Z,50.08
2019-04-27T17:11:50.177Z,50.79
2019-04-27T17:14:22.226Z,50.76
2019-04-27T17:16:54.150Z,50.83
2019-04-27T17:19:24.426Z,50.99
2019-04-27T17:21:52.949Z,51.26
2019-04-27T17:24:42.025Z,51.59
2019-04-27T17:27:06.124Z,51.66
2019-04-27T17:29:36.196Z,51.94
2019-04-27T17:32:05.291Z,52.58
2019-04-27T17:34:33.910Z,52.89
2019-04-27T17:37:02.485Z,53.09
2019-04-27T17:39:31.397Z,53.42
2019-04-27T17:41:59.907Z,53.00
2019-04-27T17:44:30.240Z,53.49
2019-04-27T17:46:58.721Z,53.80
2019-04-27T17:49:28.088Z,53.91
2019-04-27T17:51:58.573Z,54.17
2019-04-27T17:54:29.050Z,54.72
2019-04-27T17:56:57.610Z,54.91
2019-04-27T17:59:26.322Z,55.12
2019-04-27T18:02:00.941Z,55.12
2019-04-27T18:04:25.165Z,55.27
2019-04-27T18:06:55.511Z,55.09
2019-04-27T18:09:24.059Z,55.15
2019-04-27T18:11:54.381Z,55.53
2019-04-27T18:14:22.867Z,55.60
2019-04-27T18:16:51.321Z,55.84
2019-04-27T18:19:21.539Z,55.96
2019-04-27T18:21:52.573Z,56.32
2019-04-27T18:24:25.058Z,56.76
2019-04-27T18:27:03.238Z,56.62
2019-04-27T18:29:30.949Z,57.03
2019-04-27T18:31:59.751Z,57.36
2019-04-27T18:34:28.715Z,57.39
2019-04-27T18:36:58.067Z,57.51
2019-04-27T18:39:26.606Z,57.65
2019-04-27T18:41:55.166Z,58.02
2019-04-27T18:44:28.066Z,58.56
2019-04-27T18:46:58.854Z,58.54
2019-04-27T18:49:34.994Z,58.77
2019-04-27T18:52:06.560Z,59.42
2019-04-27T18:54:38.174Z,58.13
2019-04-27T18:57:10.683Z,56.52
2019-04-27T18:59:38.175Z,56.93
2019-04-27T19:02:08.431Z,55.80
2019-04-27T19:04:37.114Z,55.42
2019-04-27T19:07:06.058Z,55.40
2019-04-27T19:09:34.665Z,55.39
2019-04-27T19:12:03.544Z,55.71
2019-04-27T19:14:32.094Z,55.57
2019-04-27T19:17:01.126Z,55.85
2019-04-27T19:19:29.818Z,55.86
2019-04-27T19:21:59.058Z,56.01
2019-04-27T19:24:28.244Z,56.02
2019-04-27T19:26:58.812Z,56.79
2019-04-27T19:29:29.295Z,56.97
2019-04-27T19:32:02.162Z,56.98
2019-04-27T19:34:30.784Z,56.87
2019-04-27T19:36:59.451Z,57.29
2019-04-27T19:39:28.696Z,57.20
2019-04-27T19:42:02.879Z,57.04
2019-04-27T19:44:29.226Z,56.82
2019-04-27T19:47:00.212Z,56.82
2019-04-27T19:49:29.444Z,56.69
2019-04-27T19:51:59.366Z,56.72
2019-04-27T19:54:30.077Z,57.26
2019-04-27T19:56:59.548Z,57.20
2019-04-27T19:59:37.964Z,58.15
2019-04-27T20:02:08.746Z,58.09
2019-04-27T20:04:38.740Z,58.27
2019-04-27T20:07:10.350Z,58.09
2019-04-27T20:09:45.052Z,58.30
2019-04-27T20:12:13.864Z,58.64
2019-04-27T20:14:57.364Z,58.89
2019-04-27T20:17:31.226Z,59.30
2019-04-27T20:20:00.949Z,59.77
2019-04-27T20:22:29.627Z,60.09
2019-04-27T20:24:58.122Z,60.52
2019-04-27T20:27:26.574Z,60.74
2019-04-27T20:29:55.077Z,61.28
2019-04-27T20:32:24.088Z,61.39
2019-04-27T20:34:52.592Z,61.40
2019-04-27T20:37:21.166Z,61.73
2019-04-27T20:39:51.513Z,61.98
2019-04-27T20:42:21.181Z,62.41
2019-04-27T20:44:51.430Z,62.70
2019-04-27T20:47:20.018Z,63.28
2019-04-27T20:49:48.803Z,63.53
2019-04-27T20:52:20.802Z,64.01
2019-04-27T20:54:51.453Z,64.00
2019-04-27T20:57:19.238Z,63.50
2019-04-27T20:59:47.690Z,63.41
2019-04-27T21:02:32.893Z,63.53
2019-04-27T21:05:02.959Z,63.17
2019-04-27T21:07:42.609Z,62.98
2019-04-27T21:10:11.310Z,63.13
2019-04-27T21:12:41.184Z,63.23
2019-04-27T21:15:11.258Z,63.07
2019-04-27T21:17:40.655Z,63.57
2019-04-27T21:20:11.378Z,64.35
2019-04-27T21:22:41.654Z,64.36
2019-04-27T21:25:11.831Z,64.74
2019-04-27T21:27:41.054Z,65.20
2019-04-27T21:30:11.449Z,65.23
2019-04-27T21:32:39.999Z,65.26
2019-04-27T21:35:10.858Z,65.89
2019-04-27T21:37:41.560Z,65.69
2019-04-27T21:40:15.261Z,65.98
2019-04-27T21:42:43.676Z,65.69
2019-04-27T21:45:12.661Z,65.98
2019-04-27T21:47:44.387Z,65.83
2019-04-27T21:50:13.223Z,65.69
2019-04-27T21:52:43.492Z,65.54
2019-04-27T21:55:13.611Z,65.71
2019-04-27T21:57:42.337Z,66.02
2019-04-27T22:00:38.785Z,66.15
2019-04-27T22:03:07.590Z,66.06
2019-04-27T22:05:36.171Z,66.49
2019-04-27T22:08:04.864Z,66.40
2019-04-27T22:10:33.394Z,66.64
2019-04-27T22:13:06.591Z,67.24
2019-04-27T22:15:35.015Z,67.56
2019-04-27T22:18:03.549Z,68.01
2019-04-27T22:20:33.467Z,68.58
2019-04-27T22:23:06.411Z,68.47
2019-04-27T22:25:38.955Z,68.27
2019-04-27T22:28:07.750Z,68.56
2019-04-27T22:30:36.643Z,68.98
2019-04-27T22:33:05.048Z,68.93
2019-04-27T22:35:33.577Z,69.69
2019-04-27T22:38:02.499Z,69.57
2019-04-27T22:40:38.343Z,69.65
2019-04-27T22:43:08.441Z,69.87
2019-04-27T22:45:38.475Z,70.50
2019-04-27T22:48:06.948Z,70.61
2019-04-27T22:50:35.388Z,70.96
2019-04-27T22:53:03.897Z,71.28
2019-04-27T22:55:32.386Z,71.55
2019-04-27T22:58:08.646Z,71.96
2019-04-27T23:00:51.391Z,72.66
2019-04-27T23:03:24.191Z,72.51
2019-04-27T23:05:52.695Z,72.46
2019-04-27T23:08:22.708Z,72.73
2019-04-27T23:10:51.477Z,72.77
2019-04-27T23:13:21.350Z,72.87
2019-04-27T23:15:51.455Z,73.26
2019-04-27T23:18:20.850Z,72.94
2019-04-27T23:20:50.026Z,73.03
2019-04-27T23:23:18.548Z,74.07
2019-04-27T23:25:47.004Z,74.94
2019-04-27T23:28:15.559Z,75.08
2019-04-27T23:30:45.654Z,74.78
2019-04-27T23:33:14.189Z,74.79
2019-04-27T23:35:42.672Z,74.99
2019-04-27T23:38:17.662Z,74.76
2019-04-27T23:40:41.825Z,75.56
2019-04-27T23:43:11.481Z,75.98
2019-04-27T23:45:41.795Z,76.09
2019-04-27T23:48:12.233Z,76.14
2019-04-27T23:50:42.581Z,76.53
2019-04-27T23:53:18.531Z,76.26
2019-04-27T23:55:46.963Z,76.20
2019-04-27T23:58:15.459Z,75.91
